sensor_id;sensor_type;location;lat;lon;timestamp;P1;durP1;ratioP1;P2;durP2;ratioP2
16845;SDS011;8539;53.188;8.696;2024-03-08T00:00:12;38.30;;;19.95;;
16845;SDS011;8539;53.188;8.696;2024-03-08T00:02:43;38.92;;;19.08;;
16845;SDS011;8539;53.188;8.696;2024-03-08T00:05:14;32.05;;;17.83;;
16845;SDS011;8539;53.188;8.696;2024-03-08T00:07:42;36.45;;;20.17;;
16845;SDS011;8539;53.188;8.696;2024-03-08T00:10:10;38.63;;;19.35;;
16845;SDS011;8539;53.188;8.696;2024-03-08T00:12:41;36.13;;;20.35;;
16845;SDS011;8539;53.188;8.696;2024-03-08T00:15:14;37.15;;;18.45;;
16845;SDS011;8539;53.188;8.696;2024-03-08T00:17:44;34.70;;;18.33;;
16845;SDS011;8539;53.188;8.696;2024-03-08T00:20:12;31.67;;;18.30;;
16845;SDS011;8539;53.188;8.696;2024-03-08T00:22:41;38.85;;;18.05;;
16845;SDS011;8539;53.188;8.696;2024-03-08T00:25:08;35.67;;;18.50;;
16845;SDS011;8539;53.188;8.696;2024-03-08T00:27:36;36.25;;;19.02;;
16845;SDS011;8539;53.188;8.696;2024-03-08T00:30:05;36.72;;;18.25;;
16845;SDS011;8539;53.188;8.696;2024-03-08T00:32:33;38.50;;;19.58;;
16845;SDS011;8539;53.188;8.696;2024-03-08T00:35:01;36.50;;;19.23;;
16845;SDS011;8539;53.188;8.696;2024-03-08T00:37:28;28.58;;;17.48;;
16845;SDS011;8539;53.188;8.696;2024-03-08T00:39:55;35.33;;;17.52;;
16845;SDS011;8539;53.188;8.696;2024-03-08T00:42:22;30.23;;;17.83;;
16845;SDS011;8539;53.188;8.696;2024-03-08T00:44:50;34.35;;;18.15;;
16845;SDS011;8539;53.188;8.696;2024-03-08T00:47:18;42.60;;;18.30;;
16845;SDS011;8539;53.188;8.696;2024-03-08T00:49:46;39.58;;;20.98;;
16845;SDS011;8539;53.188;8.696;2024-03-08T00:52:13;36.50;;;17.20;;
16845;SDS011;8539;53.188;8.696;2024-03-08T00:54:41;32.90;;;19.02;;
16845;SDS011;8539;53.188;8.696;2024-03-08T00:57:10;33.80;;;16.38;;
16845;SDS011;8539;53.188;8.696;2024-03-08T00:59:38;37.03;;;18.95;;
16845;SDS011;8539;53.188;8.696;2024-03-08T01:02:06;37.58;;;18.08;;
16845;SDS011;8539;53.188;8.696;2024-03-08T01:04:33;34.40;;;17.80;;
16845;SDS011;8539;53.188;8.696;2024-03-08T01:07:00;35.78;;;17.60;;
16845;SDS011;8539;53.188;8.696;2024-03-08T01:09:27;34.78;;;18.13;;
16845;SDS011;8539;53.188;8.696;2024-03-08T01:11:55;35.67;;;18.50;;
16845;SDS011;8539;53.188;8.696;2024-03-08T01:14:23;31.88;;;17.33;;
16845;SDS011;8539;53.188;8.696;2024-03-08T01:16:52;30.88;;;17.02;;
16845;SDS011;8539;53.188;8.696;2024-03-08T01:19:21;29.02;;;18.17;;
16845;SDS011;8539;53.188;8.696;2024-03-08T01:21:50;32.58;;;17.33;;
16845;SDS011;8539;53.188;8.696;2024-03-08T01:24:18;35.85;;;17.85;;
16845;SDS011;8539;53.188;8.696;2024-03-08T01:26:46;28.73;;;17.85;;
16845;SDS011;8539;53.188;8.696;2024-03-08T01:29:14;39.58;;;18.30;;
16845;SDS011;8539;53.188;8.696;2024-03-08T01:31:41;29.77;;;17.80;;
16845;SDS011;8539;53.188;8.696;2024-03-08T01:34:08;39.85;;;18.50;;
16845;SDS011;8539;53.188;8.696;2024-03-08T01:36:35;32.05;;;18.15;;
16845;SDS011;8539;53.188;8.696;2024-03-08T01:39:03;39.05;;;17.65;;
16845;SDS011;8539;53.188;8.696;2024-03-08T01:41:35;29.23;;;16.73;;
16845;SDS011;8539;53.188;8.696;2024-03-08T01:44:03;30.77;;;19.00;;
16845;SDS011;8539;53.188;8.696;2024-03-08T01:46:30;35.78;;;18.13;;
16845;SDS011;8539;53.188;8.696;2024-03-08T01:48:58;33.05;;;17.40;;
16845;SDS011;8539;53.188;8.696;2024-03-08T01:51:28;31.80;;;17.95;;
16845;SDS011;8539;53.188;8.696;2024-03-08T01:53:55;32.30;;;16.65;;
16845;SDS011;8539;53.188;8.696;2024-03-08T01:56:27;33.20;;;16.45;;
16845;SDS011;8539;53.188;8.696;2024-03-08T01:58:54;31.63;;;17.55;;
16845;SDS011;8539;53.188;8.696;2024-03-08T02:01:22;33.13;;;18.77;;
16845;SDS011;8539;53.188;8.696;2024-03-08T02:03:49;35.72;;;19.75;;
16845;SDS011;8539;53.188;8.696;2024-03-08T02:06:17;33.30;;;18.90;;
16845;SDS011;8539;53.188;8.696;2024-03-08T02:08:45;38.60;;;19.38;;
16845;SDS011;8539;53.188;8.696;2024-03-08T02:11:13;39.05;;;21.02;;
16845;SDS011;8539;53.188;8.696;2024-03-08T02:13:41;35.50;;;18.63;;
16845;SDS011;8539;53.188;8.696;2024-03-08T02:16:08;34.50;;;19.98;;
16845;SDS011;8539;53.188;8.696;2024-03-08T02:18:36;35.33;;;19.45;;
16845;SDS011;8539;53.188;8.696;2024-03-08T02:21:06;34.45;;;18.17;;
16845;SDS011;8539;53.188;8.696;2024-03-08T02:23:35;33.58;;;18.80;;
16845;SDS011;8539;53.188;8.696;2024-03-08T02:26:04;35.03;;;18.88;;
16845;SDS011;8539;53.188;8.696;2024-03-08T02:28:31;36.33;;;18.55;;
16845;SDS011;8539;53.188;8.696;2024-03-08T02:30:58;38.42;;;18.55;;
16845;SDS011;8539;53.188;8.696;2024-03-08T02:33:26;34.17;;;18.73;;
16845;SDS011;8539;53.188;8.696;2024-03-08T02:35:55;32.30;;;17.98;;
16845;SDS011;8539;53.188;8.696;2024-03-08T02:38:23;34.95;;;21.00;;
16845;SDS011;8539;53.188;8.696;2024-03-08T02:40:52;35.05;;;19.40;;
16845;SDS011;8539;53.188;8.696;2024-03-08T02:43:20;33.50;;;18.38;;
16845;SDS011;8539;53.188;8.696;2024-03-08T02:45:51;36.78;;;18.38;;
16845;SDS011;8539;53.188;8.696;2024-03-08T02:48:21;32.25;;;18.90;;
16845;SDS011;8539;53.188;8.696;2024-03-08T02:50:49;35.15;;;18.05;;
16845;SDS011;8539;53.188;8.696;2024-03-08T02:53:17;37.90;;;19.02;;
16845;SDS011;8539;53.188;8.696;2024-03-08T02:55:45;40.50;;;19.17;;
16845;SDS011;8539;53.188;8.696;2024-03-08T02:58:13;35.25;;;18.20;;
16845;SDS011;8539;53.188;8.696;2024-03-08T03:00:41;36.83;;;19.27;;
16845;SDS011;8539;53.188;8.696;2024-03-08T03:03:11;30.67;;;18.92;;
16845;SDS011;8539;53.188;8.696;2024-03-08T03:05:38;45.50;;;18.98;;
16845;SDS011;8539;53.188;8.696;2024-03-08T03:08:13;36.20;;;19.75;;
16845;SDS011;8539;53.188;8.696;2024-03-08T03:10:42;34.90;;;17.90;;
16845;SDS011;8539;53.188;8.696;2024-03-08T03:13:09;35.17;;;18.48;;
16845;SDS011;8539;53.188;8.696;2024-03-08T03:15:36;36.83;;;20.00;;
16845;SDS011;8539;53.188;8.696;2024-03-08T03:18:03;40.05;;;20.25;;
16845;SDS011;8539;53.188;8.696;2024-03-08T03:20:35;36.58;;;19.27;;
16845;SDS011;8539;53.188;8.696;2024-03-08T03:23:10;34.38;;;18.58;;
16845;SDS011;8539;53.188;8.696;2024-03-08T03:25:42;34.17;;;19.55;;
16845;SDS011;8539;53.188;8.696;2024-03-08T03:28:09;32.58;;;19.65;;
16845;SDS011;8539;53.188;8.696;2024-03-08T03:30:41;35.65;;;20.45;;
16845;SDS011;8539;53.188;8.696;2024-03-08T03:33:08;37.33;;;19.20;;
16845;SDS011;8539;53.188;8.696;2024-03-08T03:35:36;41.85;;;19.48;;
16845;SDS011;8539;53.188;8.696;2024-03-08T03:38:05;34.38;;;19.38;;
16845;SDS011;8539;53.188;8.696;2024-03-08T03:40:35;45.15;;;20.95;;
16845;SDS011;8539;53.188;8.696;2024-03-08T03:43:03;38.30;;;20.63;;
16845;SDS011;8539;53.188;8.696;2024-03-08T03:45:31;36.30;;;19.52;;
16845;SDS011;8539;53.188;8.696;2024-03-08T03:48:02;39.90;;;21.35;;
16845;SDS011;8539;53.188;8.696;2024-03-08T03:50:30;39.92;;;21.20;;
16845;SDS011;8539;53.188;8.696;2024-03-08T03:52:57;35.13;;;19.27;;
16845;SDS011;8539;53.188;8.696;2024-03-08T03:55:24;35.95;;;20.65;;
16845;SDS011;8539;53.188;8.696;2024-03-08T03:57:51;34.80;;;18.80;;
16845;SDS011;8539;53.188;8.696;2024-03-08T04:00:19;35.47;;;19.35;;
16845;SDS011;8539;53.188;8.696;2024-03-08T04:02:46;43.15;;;19.98;;
16845;SDS011;8539;53.188;8.696;2024-03-08T04:05:13;31.17;;;18.52;;
16845;SDS011;8539;53.188;8.696;2024-03-08T04:07:41;33.30;;;19.70;;
16845;SDS011;8539;53.188;8.696;2024-03-08T04:10:08;34.38;;;19.92;;
16845;SDS011;8539;53.188;8.696;2024-03-08T04:12:36;30.10;;;17.83;;
16845;SDS011;8539;53.188;8.696;2024-03-08T04:15:04;41.03;;;19.92;;
16845;SDS011;8539;53.188;8.696;2024-03-08T04:17:34;48.13;;;20.58;;
16845;SDS011;8539;53.188;8.696;2024-03-08T04:20:04;38.00;;;20.17;;
16845;SDS011;8539;53.188;8.696;2024-03-08T04:22:37;32.20;;;18.35;;
16845;SDS011;8539;53.188;8.696;2024-03-08T04:25:05;36.97;;;19.67;;
16845;SDS011;8539;53.188;8.696;2024-03-08T04:27:33;41.33;;;20.77;;
16845;SDS011;8539;53.188;8.696;2024-03-08T04:30:01;43.72;;;20.27;;
16845;SDS011;8539;53.188;8.696;2024-03-08T04:32:29;43.33;;;23.33;;
16845;SDS011;8539;53.188;8.696;2024-03-08T04:35:00;39.30;;;20.30;;
16845;SDS011;8539;53.188;8.696;2024-03-08T04:37:30;39.33;;;19.85;;
16845;SDS011;8539;53.188;8.696;2024-03-08T04:39:58;39.67;;;21.58;;
16845;SDS011;8539;53.188;8.696;2024-03-08T04:42:26;32.63;;;20.00;;
16845;SDS011;8539;53.188;8.696;2024-03-08T04:44:56;45.30;;;22.30;;
16845;SDS011;8539;53.188;8.696;2024-03-08T04:47:24;39.40;;;21.15;;
16845;SDS011;8539;53.188;8.696;2024-03-08T04:49:52;38.58;;;21.10;;
16845;SDS011;8539;53.188;8.696;2024-03-08T04:52:19;36.05;;;20.25;;
16845;SDS011;8539;53.188;8.696;2024-03-08T04:54:48;46.08;;;21.98;;
16845;SDS011;8539;53.188;8.696;2024-03-08T04:57:16;40.00;;;22.05;;
16845;SDS011;8539;53.188;8.696;2024-03-08T04:59:45;39.88;;;22.92;;
16845;SDS011;8539;53.188;8.696;2024-03-08T05:02:12;42.13;;;20.85;;
16845;SDS011;8539;53.188;8.696;2024-03-08T05:04:40;38.83;;;20.65;;
16845;SDS011;8539;53.188;8.696;2024-03-08T05:07:09;42.28;;;22.52;;
16845;SDS011;8539;53.188;8.696;2024-03-08T05:09:36;38.17;;;22.05;;
16845;SDS011;8539;53.188;8.696;2024-03-08T05:12:04;41.00;;;22.15;;
16845;SDS011;8539;53.188;8.696;2024-03-08T05:14:32;43.50;;;21.15;;
16845;SDS011;8539;53.188;8.696;2024-03-08T05:16:59;41.17;;;22.02;;
16845;SDS011;8539;53.188;8.696;2024-03-08T05:19:28;46.75;;;22.65;;
16845;SDS011;8539;53.188;8.696;2024-03-08T05:22:00;40.60;;;22.02;;
16845;SDS011;8539;53.188;8.696;2024-03-08T05:24:28;41.88;;;20.98;;
16845;SDS011;8539;53.188;8.696;2024-03-08T05:26:56;41.13;;;22.23;;
16845;SDS011;8539;53.188;8.696;2024-03-08T05:29:23;37.95;;;21.30;;
16845;SDS011;8539;53.188;8.696;2024-03-08T05:31:51;41.45;;;21.55;;
16845;SDS011;8539;53.188;8.696;2024-03-08T05:34:19;35.38;;;20.92;;
16845;SDS011;8539;53.188;8.696;2024-03-08T05:36:48;44.03;;;21.20;;
16845;SDS011;8539;53.188;8.696;2024-03-08T05:39:20;40.72;;;22.25;;
16845;SDS011;8539;53.188;8.696;2024-03-08T05:41:48;44.63;;;22.20;;
16845;SDS011;8539;53.188;8.696;2024-03-08T05:44:15;43.85;;;22.38;;
16845;SDS011;8539;53.188;8.696;2024-03-08T05:46:48;47.20;;;21.65;;
16845;SDS011;8539;53.188;8.696;2024-03-08T05:49:15;40.10;;;21.75;;
16845;SDS011;8539;53.188;8.696;2024-03-08T05:51:42;48.58;;;23.10;;
16845;SDS011;8539;53.188;8.696;2024-03-08T05:54:10;41.88;;;22.92;;
16845;SDS011;8539;53.188;8.696;2024-03-08T05:56:42;40.92;;;22.25;;
16845;SDS011;8539;53.188;8.696;2024-03-08T05:59:10;42.83;;;23.02;;
16845;SDS011;8539;53.188;8.696;2024-03-08T06:01:37;44.58;;;22.23;;
16845;SDS011;8539;53.188;8.696;2024-03-08T06:04:07;39.10;;;19.92;;
16845;SDS011;8539;53.188;8.696;2024-03-08T06:06:34;45.92;;;22.35;;
16845;SDS011;8539;53.188;8.696;2024-03-08T06:09:04;46.03;;;24.15;;
16845;SDS011;8539;53.188;8.696;2024-03-08T06:11:51;42.10;;;23.25;;
16845;SDS011;8539;53.188;8.696;2024-03-08T06:14:20;43.88;;;23.00;;
16845;SDS011;8539;53.188;8.696;2024-03-08T06:16:47;44.83;;;21.60;;
16845;SDS011;8539;53.188;8.696;2024-03-08T06:19:17;46.75;;;24.45;;
16845;SDS011;8539;53.188;8.696;2024-03-08T06:21:44;48.83;;;22.20;;
16845;SDS011;8539;53.188;8.696;2024-03-08T06:24:12;45.38;;;25.55;;
16845;SDS011;8539;53.188;8.696;2024-03-08T06:26:39;42.45;;;23.40;;
16845;SDS011;8539;53.188;8.696;2024-03-08T06:29:09;44.58;;;24.40;;
16845;SDS011;8539;53.188;8.696;2024-03-08T06:31:36;44.13;;;21.63;;
16845;SDS011;8539;53.188;8.696;2024-03-08T06:34:07;45.95;;;22.15;;
16845;SDS011;8539;53.188;8.696;2024-03-08T06:36:35;43.60;;;24.30;;
16845;SDS011;8539;53.188;8.696;2024-03-08T06:39:04;52.90;;;25.35;;
16845;SDS011;8539;53.188;8.696;2024-03-08T06:41:36;47.17;;;25.02;;
16845;SDS011;8539;53.188;8.696;2024-03-08T06:44:04;48.63;;;22.50;;
16845;SDS011;8539;53.188;8.696;2024-03-08T06:46:31;42.97;;;21.42;;
16845;SDS011;8539;53.188;8.696;2024-03-08T06:48:58;39.90;;;21.25;;
16845;SDS011;8539;53.188;8.696;2024-03-08T06:51:25;40.65;;;22.65;;
16845;SDS011;8539;53.188;8.696;2024-03-08T06:53:53;43.83;;;23.17;;
16845;SDS011;8539;53.188;8.696;2024-03-08T06:56:20;43.08;;;21.55;;
16845;SDS011;8539;53.188;8.696;2024-03-08T06:58:47;42.75;;;22.67;;
16845;SDS011;8539;53.188;8.696;2024-03-08T07:01:14;40.22;;;22.33;;
16845;SDS011;8539;53.188;8.696;2024-03-08T07:03:41;44.33;;;22.20;;
16845;SDS011;8539;53.188;8.696;2024-03-08T07:06:11;40.22;;;21.90;;
16845;SDS011;8539;53.188;8.696;2024-03-08T07:08:38;39.92;;;21.48;;
16845;SDS011;8539;53.188;8.696;2024-03-08T07:11:05;43.10;;;21.48;;
16845;SDS011;8539;53.188;8.696;2024-03-08T07:13:33;46.72;;;24.80;;
16845;SDS011;8539;53.188;8.696;2024-03-08T07:16:00;45.78;;;24.20;;
16845;SDS011;8539;53.188;8.696;2024-03-08T07:18:27;46.80;;;21.70;;
16845;SDS011;8539;53.188;8.696;2024-03-08T07:20:56;38.33;;;20.30;;
16845;SDS011;8539;53.188;8.696;2024-03-08T07:23:24;40.90;;;23.20;;
16845;SDS011;8539;53.188;8.696;2024-03-08T07:26:09;39.80;;;21.73;;
16845;SDS011;8539;53.188;8.696;2024-03-08T07:28:37;41.97;;;23.05;;
16845;SDS011;8539;53.188;8.696;2024-03-08T07:31:04;38.92;;;20.95;;
16845;SDS011;8539;53.188;8.696;2024-03-08T07:33:43;31.45;;;18.20;;
16845;SDS011;8539;53.188;8.696;2024-03-08T07:36:11;34.20;;;18.92;;
16845;SDS011;8539;53.188;8.696;2024-03-08T07:38:38;31.77;;;19.13;;
16845;SDS011;8539;53.188;8.696;2024-03-08T07:41:05;34.92;;;20.30;;
16845;SDS011;8539;53.188;8.696;2024-03-08T07:43:32;29.17;;;18.00;;
16845;SDS011;8539;53.188;8.696;2024-03-08T07:46:00;34.40;;;21.40;;
16845;SDS011;8539;53.188;8.696;2024-03-08T07:48:27;32.58;;;19.73;;
16845;SDS011;8539;53.188;8.696;2024-03-08T07:50:54;34.03;;;18.75;;
16845;SDS011;8539;53.188;8.696;2024-03-08T07:53:22;29.08;;;19.73;;
16845;SDS011;8539;53.188;8.696;2024-03-08T07:55:51;33.45;;;17.38;;
16845;SDS011;8539;53.188;8.696;2024-03-08T07:58:19;37.70;;;19.23;;
16845;SDS011;8539;53.188;8.696;2024-03-08T08:00:47;33.60;;;20.55;;
16845;SDS011;8539;53.188;8.696;2024-03-08T08:03:15;30.48;;;17.90;;
16845;SDS011;8539;53.188;8.696;2024-03-08T08:05:47;34.08;;;18.13;;
16845;SDS011;8539;53.188;8.696;2024-03-08T08:08:16;31.95;;;19.45;;
16845;SDS011;8539;53.188;8.696;2024-03-08T08:10:43;27.17;;;17.23;;
16845;SDS011;8539;53.188;8.696;2024-03-08T08:13:10;31.98;;;19.67;;
16845;SDS011;8539;53.188;8.696;2024-03-08T08:15:37;31.60;;;18.35;;
16845;SDS011;8539;53.188;8.696;2024-03-08T08:18:05;31.58;;;19.15;;
16845;SDS011;8539;53.188;8.696;2024-03-08T08:20:34;29.60;;;17.40;;
16845;SDS011;8539;53.188;8.696;2024-03-08T08:23:01;31.88;;;19.63;;
16845;SDS011;8539;53.188;8.696;2024-03-08T08:25:29;30.08;;;18.58;;
16845;SDS011;8539;53.188;8.696;2024-03-08T08:27:57;32.33;;;17.77;;
16845;SDS011;8539;53.188;8.696;2024-03-08T08:30:24;32.58;;;19.17;;
16845;SDS011;8539;53.188;8.696;2024-03-08T08:32:51;33.88;;;19.13;;
16845;SDS011;8539;53.188;8.696;2024-03-08T08:35:18;33.85;;;18.40;;
16845;SDS011;8539;53.188;8.696;2024-03-08T08:37:46;35.58;;;20.27;;
16845;SDS011;8539;53.188;8.696;2024-03-08T08:40:13;34.28;;;20.05;;
16845;SDS011;8539;53.188;8.696;2024-03-08T08:42:42;28.42;;;17.27;;
16845;SDS011;8539;53.188;8.696;2024-03-08T08:45:10;31.55;;;20.05;;
16845;SDS011;8539;53.188;8.696;2024-03-08T08:47:43;30.27;;;18.73;;
16845;SDS011;8539;53.188;8.696;2024-03-08T08:50:12;29.65;;;19.35;;
16845;SDS011;8539;53.188;8.696;2024-03-08T08:55:26;30.00;;;18.73;;
16845;SDS011;8539;53.188;8.696;2024-03-08T08:57:53;31.70;;;18.30;;
16845;SDS011;8539;53.188;8.696;2024-03-08T09:00:21;30.27;;;17.80;;
16845;SDS011;8539;53.188;8.696;2024-03-08T09:02:50;33.03;;;18.42;;
16845;SDS011;8539;53.188;8.696;2024-03-08T09:05:18;26.08;;;17.13;;
16845;SDS011;8539;53.188;8.696;2024-03-08T09:07:45;27.25;;;17.90;;
16845;SDS011;8539;53.188;8.696;2024-03-08T09:10:12;28.23;;;16.65;;
16845;SDS011;8539;53.188;8.696;2024-03-08T09:12:43;27.70;;;17.75;;
16845;SDS011;8539;53.188;8.696;2024-03-08T09:15:11;26.65;;;17.05;;
16845;SDS011;8539;53.188;8.696;2024-03-08T09:17:39;26.02;;;16.70;;
16845;SDS011;8539;53.188;8.696;2024-03-08T09:20:07;28.02;;;17.10;;
16845;SDS011;8539;53.188;8.696;2024-03-08T09:22:36;31.63;;;19.38;;
16845;SDS011;8539;53.188;8.696;2024-03-08T09:25:04;31.50;;;17.92;;
16845;SDS011;8539;53.188;8.696;2024-03-08T09:27:32;29.58;;;18.75;;
16845;SDS011;8539;53.188;8.696;2024-03-08T09:30:04;31.52;;;18.83;;
16845;SDS011;8539;53.188;8.696;2024-03-08T09:32:34;28.10;;;17.85;;
16845;SDS011;8539;53.188;8.696;2024-03-08T09:35:01;25.85;;;16.65;;
16845;SDS011;8539;53.188;8.696;2024-03-08T09:37:29;28.63;;;19.00;;
16845;SDS011;8539;53.188;8.696;2024-03-08T09:39:57;26.95;;;16.30;;
16845;SDS011;8539;53.188;8.696;2024-03-08T09:42:25;31.67;;;18.30;;
16845;SDS011;8539;53.188;8.696;2024-03-08T09:44:53;27.90;;;17.38;;
16845;SDS011;8539;53.188;8.696;2024-03-08T09:47:20;30.17;;;17.08;;
16845;SDS011;8539;53.188;8.696;2024-03-08T09:49:50;28.55;;;17.27;;
16845;SDS011;8539;53.188;8.696;2024-03-08T09:52:17;30.08;;;18.50;;
16845;SDS011;8539;53.188;8.696;2024-03-08T09:54:45;28.75;;;17.67;;
16845;SDS011;8539;53.188;8.696;2024-03-08T09:57:12;30.30;;;20.27;;
16845;SDS011;8539;53.188;8.696;2024-03-08T09:59:39;31.75;;;18.58;;
16845;SDS011;8539;53.188;8.696;2024-03-08T10:02:08;32.13;;;18.58;;
16845;SDS011;8539;53.188;8.696;2024-03-08T10:04:42;27.27;;;18.02;;
16845;SDS011;8539;53.188;8.696;2024-03-08T10:07:09;27.55;;;17.17;;
16845;SDS011;8539;53.188;8.696;2024-03-08T10:09:38;26.75;;;18.13;;
16845;SDS011;8539;53.188;8.696;2024-03-08T10:12:05;25.60;;;17.20;;
16845;SDS011;8539;53.188;8.696;2024-03-08T10:14:33;30.00;;;18.17;;
16845;SDS011;8539;53.188;8.696;2024-03-08T10:17:00;29.88;;;18.25;;
16845;SDS011;8539;53.188;8.696;2024-03-08T10:19:27;26.48;;;17.40;;
16845;SDS011;8539;53.188;8.696;2024-03-08T10:21:58;25.00;;;17.05;;
16845;SDS011;8539;53.188;8.696;2024-03-08T10:24:26;27.63;;;17.42;;
16845;SDS011;8539;53.188;8.696;2024-03-08T10:26:53;30.83;;;17.05;;
16845;SDS011;8539;53.188;8.696;2024-03-08T10:29:26;28.30;;;17.85;;
16845;SDS011;8539;53.188;8.696;2024-03-08T10:31:55;26.98;;;17.63;;
16845;SDS011;8539;53.188;8.696;2024-03-08T10:34:23;26.65;;;17.23;;
16845;SDS011;8539;53.188;8.696;2024-03-08T10:36:51;28.52;;;18.42;;
16845;SDS011;8539;53.188;8.696;2024-03-08T10:39:22;30.75;;;17.63;;
16845;SDS011;8539;53.188;8.696;2024-03-08T10:41:52;29.45;;;19.63;;
16845;SDS011;8539;53.188;8.696;2024-03-08T10:47:01;28.73;;;18.25;;
16845;SDS011;8539;53.188;8.696;2024-03-08T10:52:20;26.50;;;17.30;;
16845;SDS011;8539;53.188;8.696;2024-03-08T10:54:49;27.33;;;17.90;;
16845;SDS011;8539;53.188;8.696;2024-03-08T10:57:21;30.45;;;17.90;;
16845;SDS011;8539;53.188;8.696;2024-03-08T10:59:50;30.02;;;19.27;;
16845;SDS011;8539;53.188;8.696;2024-03-08T11:02:20;23.40;;;18.17;;
16845;SDS011;8539;53.188;8.696;2024-03-08T11:04:48;26.38;;;18.05;;
16845;SDS011;8539;53.188;8.696;2024-03-08T11:07:17;29.95;;;18.92;;
16845;SDS011;8539;53.188;8.696;2024-03-08T11:09:49;30.15;;;19.25;;
16845;SDS011;8539;53.188;8.696;2024-03-08T11:12:20;30.63;;;17.45;;
16845;SDS011;8539;53.188;8.696;2024-03-08T11:14:52;26.70;;;18.75;;
16845;SDS011;8539;53.188;8.696;2024-03-08T11:17:20;27.45;;;17.95;;
16845;SDS011;8539;53.188;8.696;2024-03-08T11:19:52;26.30;;;17.98;;
16845;SDS011;8539;53.188;8.696;2024-03-08T11:22:23;28.55;;;18.95;;
16845;SDS011;8539;53.188;8.696;2024-03-08T11:25:07;27.73;;;19.75;;
16845;SDS011;8539;53.188;8.696;2024-03-08T11:27:39;26.95;;;17.80;;
16845;SDS011;8539;53.188;8.696;2024-03-08T11:30:18;25.85;;;18.13;;
16845;SDS011;8539;53.188;8.696;2024-03-08T11:32:51;30.25;;;18.10;;
16845;SDS011;8539;53.188;8.696;2024-03-08T11:35:20;26.73;;;17.65;;
16845;SDS011;8539;53.188;8.696;2024-03-08T11:37:50;28.35;;;18.38;;
16845;SDS011;8539;53.188;8.696;2024-03-08T11:40:17;28.75;;;18.40;;
16845;SDS011;8539;53.188;8.696;2024-03-08T11:42:47;29.65;;;18.60;;
16845;SDS011;8539;53.188;8.696;2024-03-08T11:45:16;32.33;;;20.05;;
16845;SDS011;8539;53.188;8.696;2024-03-08T11:47:44;29.70;;;18.10;;
16845;SDS011;8539;53.188;8.696;2024-03-08T11:50:16;27.90;;;17.95;;
16845;SDS011;8539;53.188;8.696;2024-03-08T11:52:46;33.22;;;19.65;;
16845;SDS011;8539;53.188;8.696;2024-03-08T11:55:13;27.10;;;17.65;;
16845;SDS011;8539;53.188;8.696;2024-03-08T11:57:41;25.92;;;17.33;;
16845;SDS011;8539;53.188;8.696;2024-03-08T12:00:16;25.30;;;16.63;;
16845;SDS011;8539;53.188;8.696;2024-03-08T12:03:07;26.00;;;18.05;;
16845;SDS011;8539;53.188;8.696;2024-03-08T12:05:36;27.83;;;18.70;;
16845;SDS011;8539;53.188;8.696;2024-03-08T12:08:04;27.25;;;17.23;;
16845;SDS011;8539;53.188;8.696;2024-03-08T12:10:33;29.80;;;16.48;;
16845;SDS011;8539;53.188;8.696;2024-03-08T12:13:02;28.65;;;18.42;;
16845;SDS011;8539;53.188;8.696;2024-03-08T12:15:37;28.50;;;17.10;;
16845;SDS011;8539;53.188;8.696;2024-03-08T12:18:06;24.63;;;17.23;;
16845;SDS011;8539;53.188;8.696;2024-03-08T12:20:34;30.80;;;17.27;;
16845;SDS011;8539;53.188;8.696;2024-03-08T12:23:01;23.95;;;16.80;;
16845;SDS011;8539;53.188;8.696;2024-03-08T12:25:32;24.50;;;15.85;;
16845;SDS011;8539;53.188;8.696;2024-03-08T12:28:12;26.70;;;17.40;;
16845;SDS011;8539;53.188;8.696;2024-03-08T12:30:51;23.55;;;15.75;;
16845;SDS011;8539;53.188;8.696;2024-03-08T12:33:20;26.23;;;16.88;;
16845;SDS011;8539;53.188;8.696;2024-03-08T12:35:52;26.77;;;16.75;;
16845;SDS011;8539;53.188;8.696;2024-03-08T12:38:22;22.70;;;17.33;;
16845;SDS011;8539;53.188;8.696;2024-03-08T12:41:00;27.98;;;16.45;;
16845;SDS011;8539;53.188;8.696;2024-03-08T12:43:28;25.50;;;16.42;;
16845;SDS011;8539;53.188;8.696;2024-03-08T12:45:58;28.45;;;16.92;;
16845;SDS011;8539;53.188;8.696;2024-03-08T12:48:25;26.27;;;16.70;;
16845;SDS011;8539;53.188;8.696;2024-03-08T12:50:52;22.38;;;15.05;;
16845;SDS011;8539;53.188;8.696;2024-03-08T12:53:20;24.50;;;16.70;;
16845;SDS011;8539;53.188;8.696;2024-03-08T12:55:50;24.20;;;16.27;;
16845;SDS011;8539;53.188;8.696;2024-03-08T12:58:17;24.65;;;14.75;;
16845;SDS011;8539;53.188;8.696;2024-03-08T13:00:46;20.38;;;14.55;;
16845;SDS011;8539;53.188;8.696;2024-03-08T13:03:19;26.43;;;16.70;;
16845;SDS011;8539;53.188;8.696;2024-03-08T13:05:47;27.55;;;16.05;;
16845;SDS011;8539;53.188;8.696;2024-03-08T13:08:15;24.95;;;16.77;;
16845;SDS011;8539;53.188;8.696;2024-03-08T13:10:42;22.92;;;15.93;;
16845;SDS011;8539;53.188;8.696;2024-03-08T13:13:11;21.52;;;15.15;;
16845;SDS011;8539;53.188;8.696;2024-03-08T13:15:42;25.58;;;16.50;;
16845;SDS011;8539;53.188;8.696;2024-03-08T13:18:10;24.85;;;16.30;;
16845;SDS011;8539;53.188;8.696;2024-03-08T13:20:38;25.67;;;17.27;;
16845;SDS011;8539;53.188;8.696;2024-03-08T13:23:13;24.38;;;15.00;;
16845;SDS011;8539;53.188;8.696;2024-03-08T13:25:40;28.92;;;19.23;;
16845;SDS011;8539;53.188;8.696;2024-03-08T13:28:08;30.88;;;17.92;;
16845;SDS011;8539;53.188;8.696;2024-03-08T13:30:35;22.65;;;17.00;;
16845;SDS011;8539;53.188;8.696;2024-03-08T13:33:03;27.88;;;17.00;;
16845;SDS011;8539;53.188;8.696;2024-03-08T13:35:32;28.13;;;17.00;;
16845;SDS011;8539;53.188;8.696;2024-03-08T13:38:00;26.20;;;19.50;;
16845;SDS011;8539;53.188;8.696;2024-03-08T13:40:30;25.00;;;17.50;;
16845;SDS011;8539;53.188;8.696;2024-03-08T13:42:57;24.67;;;15.48;;
16845;SDS011;8539;53.188;8.696;2024-03-08T13:45:28;24.08;;;16.08;;
16845;SDS011;8539;53.188;8.696;2024-03-08T13:47:55;26.73;;;17.15;;
16845;SDS011;8539;53.188;8.696;2024-03-08T13:50:23;24.73;;;16.55;;
16845;SDS011;8539;53.188;8.696;2024-03-08T13:52:50;23.00;;;16.20;;
16845;SDS011;8539;53.188;8.696;2024-03-08T13:55:20;26.85;;;18.75;;
16845;SDS011;8539;53.188;8.696;2024-03-08T13:57:54;28.33;;;17.27;;
16845;SDS011;8539;53.188;8.696;2024-03-08T14:00:23;25.17;;;16.73;;
16845;SDS011;8539;53.188;8.696;2024-03-08T14:02:54;23.90;;;17.65;;
16845;SDS011;8539;53.188;8.696;2024-03-08T14:05:21;27.92;;;16.63;;
16845;SDS011;8539;53.188;8.696;2024-03-08T14:07:48;26.55;;;17.20;;
16845;SDS011;8539;53.188;8.696;2024-03-08T14:10:16;27.83;;;17.58;;
16845;SDS011;8539;53.188;8.696;2024-03-08T14:12:49;25.75;;;16.25;;
16845;SDS011;8539;53.188;8.696;2024-03-08T14:15:17;28.60;;;17.23;;
16845;SDS011;8539;53.188;8.696;2024-03-08T14:17:44;26.55;;;18.42;;
16845;SDS011;8539;53.188;8.696;2024-03-08T14:20:13;27.77;;;18.13;;
16845;SDS011;8539;53.188;8.696;2024-03-08T14:22:41;24.17;;;17.00;;
16845;SDS011;8539;53.188;8.696;2024-03-08T14:25:08;28.45;;;18.42;;
16845;SDS011;8539;53.188;8.696;2024-03-08T14:27:45;23.67;;;17.05;;
16845;SDS011;8539;53.188;8.696;2024-03-08T14:30:13;32.55;;;19.08;;
16845;SDS011;8539;53.188;8.696;2024-03-08T14:32:44;29.85;;;17.77;;
16845;SDS011;8539;53.188;8.696;2024-03-08T14:35:14;27.80;;;18.02;;
16845;SDS011;8539;53.188;8.696;2024-03-08T14:37:44;23.75;;;16.58;;
16845;SDS011;8539;53.188;8.696;2024-03-08T14:40:11;25.60;;;16.83;;
16845;SDS011;8539;53.188;8.696;2024-03-08T14:42:41;26.90;;;18.25;;
16845;SDS011;8539;53.188;8.696;2024-03-08T14:45:09;22.83;;;15.30;;
16845;SDS011;8539;53.188;8.696;2024-03-08T14:47:36;27.30;;;18.90;;
16845;SDS011;8539;53.188;8.696;2024-03-08T14:50:04;25.23;;;16.60;;